sensor_id;sensor_type;location;lat;lon;timestamp;P1;durP1;ratioP1;P2;durP2;ratioP2
3074;SDS011;1548;51.716;8.748;2022-12-18T00:02:11;416.23;;;125.93;;
3074;SDS011;1548;51.716;8.748;2022-12-18T00:04:36;429.40;;;112.87;;
3074;SDS011;1548;51.716;8.748;2022-12-18T00:07:02;432.47;;;104.70;;
3074;SDS011;1548;51.716;8.748;2022-12-18T00:09:28;428.50;;;103.93;;
3074;SDS011;1548;51.716;8.748;2022-12-18T00:11:53;429.03;;;96.40;;
3074;SDS011;1548;51.716;8.748;2022-12-18T00:14:19;430.53;;;102.57;;
3074;SDS011;1548;51.716;8.748;2022-12-18T00:16:45;429.73;;;103.07;;
3074;SDS011;1548;51.716;8.748;2022-12-18T00:19:11;414.43;;;113.67;;
3074;SDS011;1548;51.716;8.748;2022-12-18T00:21:41;418.77;;;118.80;;
3074;SDS011;1548;51.716;8.748;2022-12-18T00:24:08;426.83;;;107.43;;
3074;SDS011;1548;51.716;8.748;2022-12-18T00:26:35;425.67;;;120.93;;
3074;SDS011;1548;51.716;8.748;2022-12-18T00:29:12;433.13;;;120.40;;
3074;SDS011;1548;51.716;8.748;2022-12-18T00:31:38;437.33;;;114.80;;
3074;SDS011;1548;51.716;8.748;2022-12-18T00:34:05;431.70;;;112.50;;
3074;SDS011;1548;51.716;8.748;2022-12-18T00:36:32;411.33;;;120.40;;
3074;SDS011;1548;51.716;8.748;2022-12-18T00:39:00;409.90;;;107.40;;
3074;SDS011;1548;51.716;8.748;2022-12-18T00:41:28;432.60;;;108.60;;
3074;SDS011;1548;51.716;8.748;2022-12-18T00:44:13;433.67;;;111.17;;
3074;SDS011;1548;51.716;8.748;2022-12-18T00:46:40;429.57;;;116.37;;
3074;SDS011;1548;51.716;8.748;2022-12-18T00:49:07;426.47;;;115.77;;
3074;SDS011;1548;51.716;8.748;2022-12-18T00:51:33;427.20;;;108.57;;
3074;SDS011;1548;51.716;8.748;2022-12-18T00:53:58;428.77;;;106.00;;
3074;SDS011;1548;51.716;8.748;2022-12-18T00:56:24;431.17;;;104.63;;
3074;SDS011;1548;51.716;8.748;2022-12-18T00:58:50;429.90;;;103.50;;
3074;SDS011;1548;51.716;8.748;2022-12-18T01:01:16;431.73;;;107.70;;
3074;SDS011;1548;51.716;8.748;2022-12-18T01:03:41;431.87;;;103.63;;
3074;SDS011;1548;51.716;8.748;2022-12-18T01:06:08;429.37;;;101.37;;
3074;SDS011;1548;51.716;8.748;2022-12-18T01:08:36;431.53;;;102.43;;
3074;SDS011;1548;51.716;8.748;2022-12-18T01:11:12;429.87;;;103.30;;
3074;SDS011;1548;51.716;8.748;2022-12-18T01:13:40;430.23;;;108.83;;
3074;SDS011;1548;51.716;8.748;2022-12-18T01:16:06;425.73;;;114.53;;
3074;SDS011;1548;51.716;8.748;2022-12-18T01:18:32;431.10;;;113.93;;
3074;SDS011;1548;51.716;8.748;2022-12-18T01:20:57;432.53;;;119.37;;
3074;SDS011;1548;51.716;8.748;2022-12-18T01:23:26;426.87;;;128.30;;
3074;SDS011;1548;51.716;8.748;2022-12-18T01:25:52;428.47;;;117.37;;
3074;SDS011;1548;51.716;8.748;2022-12-18T01:28:18;417.57;;;118.70;;
3074;SDS011;1548;51.716;8.748;2022-12-18T01:30:43;430.63;;;122.33;;
3074;SDS011;1548;51.716;8.748;2022-12-18T01:33:09;425.80;;;110.70;;
3074;SDS011;1548;51.716;8.748;2022-12-18T01:35:43;419.83;;;112.40;;
3074;SDS011;1548;51.716;8.748;2022-12-18T01:38:09;400.47;;;116.30;;
3074;SDS011;1548;51.716;8.748;2022-12-18T01:40:35;418.20;;;114.80;;
3074;SDS011;1548;51.716;8.748;2022-12-18T01:43:01;407.93;;;114.93;;
3074;SDS011;1548;51.716;8.748;2022-12-18T01:45:27;425.13;;;130.97;;
3074;SDS011;1548;51.716;8.748;2022-12-18T01:47:56;398.23;;;131.23;;
3074;SDS011;1548;51.716;8.748;2022-12-18T01:50:34;407.23;;;121.67;;
3074;SDS011;1548;51.716;8.748;2022-12-18T01:53:05;424.00;;;135.60;;
3074;SDS011;1548;51.716;8.748;2022-12-18T01:55:43;411.13;;;133.33;;
3074;SDS011;1548;51.716;8.748;2022-12-18T01:58:25;421.30;;;126.80;;
3074;SDS011;1548;51.716;8.748;2022-12-18T02:01:04;400.57;;;130.23;;
3074;SDS011;1548;51.716;8.748;2022-12-18T02:03:30;428.53;;;150.87;;
3074;SDS011;1548;51.716;8.748;2022-12-18T02:06:01;367.27;;;149.07;;
3074;SDS011;1548;51.716;8.748;2022-12-18T02:08:33;355.30;;;154.37;;
3074;SDS011;1548;51.716;8.748;2022-12-18T02:16:33;413.87;;;114.33;;
3074;SDS011;1548;51.716;8.748;2022-12-18T02:24:59;415.80;;;118.33;;
3074;SDS011;1548;51.716;8.748;2022-12-18T02:27:39;427.70;;;111.50;;
3074;SDS011;1548;51.716;8.748;2022-12-18T02:30:06;409.20;;;111.30;;
3074;SDS011;1548;51.716;8.748;2022-12-18T02:32:34;412.80;;;100.83;;
3074;SDS011;1548;51.716;8.748;2022-12-18T02:35:05;413.33;;;112.57;;
3074;SDS011;1548;51.716;8.748;2022-12-18T02:37:33;418.40;;;112.43;;
3074;SDS011;1548;51.716;8.748;2022-12-18T02:40:00;419.00;;;130.10;;
3074;SDS011;1548;51.716;8.748;2022-12-18T02:42:27;381.83;;;160.07;;
3074;SDS011;1548;51.716;8.748;2022-12-18T02:44:56;355.10;;;150.40;;
3074;SDS011;1548;51.716;8.748;2022-12-18T02:47:22;361.00;;;149.93;;
3074;SDS011;1548;51.716;8.748;2022-12-18T02:50:14;392.37;;;151.60;;
3074;SDS011;1548;51.716;8.748;2022-12-18T02:55:27;432.90;;;97.70;;
3074;SDS011;1548;51.716;8.748;2022-12-18T03:00:41;462.17;;;127.23;;
3074;SDS011;1548;51.716;8.748;2022-12-18T03:03:16;432.30;;;102.43;;
3074;SDS011;1548;51.716;8.748;2022-12-18T03:05:53;428.07;;;101.40;;
3074;SDS011;1548;51.716;8.748;2022-12-18T03:08:31;431.57;;;97.90;;
3074;SDS011;1548;51.716;8.748;2022-12-18T03:11:02;433.80;;;97.70;;
3074;SDS011;1548;51.716;8.748;2022-12-18T03:13:29;434.63;;;100.13;;
3074;SDS011;1548;51.716;8.748;2022-12-18T03:16:00;436.23;;;99.47;;
3074;SDS011;1548;51.716;8.748;2022-12-18T03:18:31;436.77;;;99.43;;
3074;SDS011;1548;51.716;8.748;2022-12-18T03:21:04;429.20;;;94.83;;
3074;SDS011;1548;51.716;8.748;2022-12-18T03:23:36;431.43;;;97.03;;
3074;SDS011;1548;51.716;8.748;2022-12-18T03:26:11;436.43;;;98.43;;
3074;SDS011;1548;51.716;8.748;2022-12-18T03:28:45;431.63;;;98.93;;
3074;SDS011;1548;51.716;8.748;2022-12-18T03:31:15;428.43;;;100.13;;
3074;SDS011;1548;51.716;8.748;2022-12-18T03:33:54;429.37;;;106.07;;
3074;SDS011;1548;51.716;8.748;2022-12-18T03:36:23;437.27;;;109.87;;
3074;SDS011;1548;51.716;8.748;2022-12-18T03:38:49;428.23;;;103.73;;
3074;SDS011;1548;51.716;8.748;2022-12-18T03:41:17;430.33;;;105.10;;
3074;SDS011;1548;51.716;8.748;2022-12-18T03:46:38;360.97;;;147.33;;
3074;SDS011;1548;51.716;8.748;2022-12-18T03:52:01;427.73;;;111.77;;
3074;SDS011;1548;51.716;8.748;2022-12-18T03:54:31;431.17;;;113.20;;
3074;SDS011;1548;51.716;8.748;2022-12-18T03:57:01;415.67;;;114.20;;
3074;SDS011;1548;51.716;8.748;2022-12-18T03:59:36;379.23;;;142.33;;
3074;SDS011;1548;51.716;8.748;2022-12-18T04:02:03;413.70;;;108.03;;
3074;SDS011;1548;51.716;8.748;2022-12-18T04:04:31;437.17;;;108.77;;
3074;SDS011;1548;51.716;8.748;2022-12-18T04:06:59;431.17;;;108.00;;
3074;SDS011;1548;51.716;8.748;2022-12-18T04:09:25;433.90;;;103.77;;
3074;SDS011;1548;51.716;8.748;2022-12-18T04:11:51;430.40;;;104.07;;
3074;SDS011;1548;51.716;8.748;2022-12-18T04:14:17;434.07;;;103.27;;
3074;SDS011;1548;51.716;8.748;2022-12-18T04:16:42;428.73;;;106.93;;
3074;SDS011;1548;51.716;8.748;2022-12-18T04:19:08;418.50;;;104.13;;
3074;SDS011;1548;51.716;8.748;2022-12-18T04:21:34;428.80;;;109.23;;
3074;SDS011;1548;51.716;8.748;2022-12-18T04:23:59;430.27;;;100.80;;
3074;SDS011;1548;51.716;8.748;2022-12-18T04:26:25;431.67;;;100.60;;
3074;SDS011;1548;51.716;8.748;2022-12-18T04:28:50;431.53;;;97.60;;
3074;SDS011;1548;51.716;8.748;2022-12-18T04:31:16;435.60;;;101.93;;
3074;SDS011;1548;51.716;8.748;2022-12-18T04:33:41;421.97;;;109.60;;
3074;SDS011;1548;51.716;8.748;2022-12-18T04:36:07;408.73;;;110.83;;
3074;SDS011;1548;51.716;8.748;2022-12-18T04:38:33;428.43;;;100.07;;
3074;SDS011;1548;51.716;8.748;2022-12-18T04:41:01;378.77;;;148.80;;
3074;SDS011;1548;51.716;8.748;2022-12-18T04:43:27;423.67;;;112.47;;
3074;SDS011;1548;51.716;8.748;2022-12-18T04:46:03;429.43;;;99.57;;
3074;SDS011;1548;51.716;8.748;2022-12-18T04:48:30;418.50;;;94.67;;
3074;SDS011;1548;51.716;8.748;2022-12-18T04:50:56;427.83;;;101.27;;
3074;SDS011;1548;51.716;8.748;2022-12-18T04:53:22;432.93;;;108.57;;
3074;SDS011;1548;51.716;8.748;2022-12-18T04:55:47;364.00;;;149.93;;
3074;SDS011;1548;51.716;8.748;2022-12-18T04:58:13;365.87;;;153.80;;
3074;SDS011;1548;51.716;8.748;2022-12-18T05:00:38;375.70;;;152.70;;
3074;SDS011;1548;51.716;8.748;2022-12-18T05:03:04;365.97;;;149.27;;
3074;SDS011;1548;51.716;8.748;2022-12-18T05:05:30;374.07;;;150.63;;
3074;SDS011;1548;51.716;8.748;2022-12-18T05:07:55;373.90;;;150.87;;
3074;SDS011;1548;51.716;8.748;2022-12-18T05:10:21;380.13;;;150.37;;
3074;SDS011;1548;51.716;8.748;2022-12-18T05:12:47;369.13;;;149.20;;
3074;SDS011;1548;51.716;8.748;2022-12-18T05:15:31;370.43;;;150.43;;
3074;SDS011;1548;51.716;8.748;2022-12-18T05:17:57;355.73;;;146.87;;
3074;SDS011;1548;51.716;8.748;2022-12-18T05:20:23;386.17;;;156.30;;
3074;SDS011;1548;51.716;8.748;2022-12-18T05:22:50;374.33;;;151.30;;
3074;SDS011;1548;51.716;8.748;2022-12-18T05:25:17;384.97;;;134.33;;
3074;SDS011;1548;51.716;8.748;2022-12-18T05:27:43;437.40;;;98.10;;
3074;SDS011;1548;51.716;8.748;2022-12-18T05:30:09;434.53;;;99.03;;
3074;SDS011;1548;51.716;8.748;2022-12-18T05:32:35;452.20;;;99.80;;
3074;SDS011;1548;51.716;8.748;2022-12-18T05:35:01;443.23;;;103.23;;
3074;SDS011;1548;51.716;8.748;2022-12-18T05:37:27;430.77;;;102.43;;
3074;SDS011;1548;51.716;8.748;2022-12-18T05:39:52;433.03;;;104.63;;
3074;SDS011;1548;51.716;8.748;2022-12-18T05:42:18;427.37;;;99.73;;
3074;SDS011;1548;51.716;8.748;2022-12-18T05:44:43;428.77;;;99.43;;
3074;SDS011;1548;51.716;8.748;2022-12-18T05:47:09;414.00;;;102.83;;
3074;SDS011;1548;51.716;8.748;2022-12-18T05:49:35;377.53;;;156.83;;
3074;SDS011;1548;51.716;8.748;2022-12-18T05:52:00;357.57;;;148.53;;
3074;SDS011;1548;51.716;8.748;2022-12-18T05:54:27;348.63;;;148.63;;
3074;SDS011;1548;51.716;8.748;2022-12-18T05:56:52;353.03;;;149.60;;
3074;SDS011;1548;51.716;8.748;2022-12-18T05:59:18;350.73;;;149.27;;
3074;SDS011;1548;51.716;8.748;2022-12-18T06:01:44;356.40;;;150.13;;
3074;SDS011;1548;51.716;8.748;2022-12-18T06:04:10;361.97;;;146.93;;
3074;SDS011;1548;51.716;8.748;2022-12-18T06:06:36;364.07;;;149.43;;
3074;SDS011;1548;51.716;8.748;2022-12-18T06:09:02;356.33;;;146.17;;
3074;SDS011;1548;51.716;8.748;2022-12-18T06:11:33;352.93;;;146.47;;
3074;SDS011;1548;51.716;8.748;2022-12-18T06:13:59;356.73;;;147.97;;
3074;SDS011;1548;51.716;8.748;2022-12-18T06:16:25;379.40;;;143.13;;
3074;SDS011;1548;51.716;8.748;2022-12-18T06:18:51;430.23;;;123.80;;
3074;SDS011;1548;51.716;8.748;2022-12-18T06:21:17;432.47;;;117.57;;
3074;SDS011;1548;51.716;8.748;2022-12-18T06:23:42;428.00;;;124.83;;
3074;SDS011;1548;51.716;8.748;2022-12-18T06:26:09;409.93;;;124.80;;
3074;SDS011;1548;51.716;8.748;2022-12-18T06:28:36;423.07;;;121.03;;
3074;SDS011;1548;51.716;8.748;2022-12-18T06:31:02;425.70;;;128.97;;
3074;SDS011;1548;51.716;8.748;2022-12-18T06:33:29;360.47;;;146.50;;
3074;SDS011;1548;51.716;8.748;2022-12-18T06:36:05;374.17;;;157.67;;
3074;SDS011;1548;51.716;8.748;2022-12-18T06:38:36;349.60;;;146.97;;
3074;SDS011;1548;51.716;8.748;2022-12-18T06:41:21;361.43;;;155.97;;
3074;SDS011;1548;51.716;8.748;2022-12-18T06:43:46;371.00;;;159.13;;
3074;SDS011;1548;51.716;8.748;2022-12-18T06:46:12;356.07;;;147.40;;
3074;SDS011;1548;51.716;8.748;2022-12-18T06:48:38;364.60;;;150.40;;
3074;SDS011;1548;51.716;8.748;2022-12-18T06:51:03;369.90;;;148.87;;
3074;SDS011;1548;51.716;8.748;2022-12-18T06:53:29;378.43;;;149.57;;
3074;SDS011;1548;51.716;8.748;2022-12-18T06:56:00;389.97;;;153.53;;
3074;SDS011;1548;51.716;8.748;2022-12-18T06:58:30;372.20;;;152.13;;
3074;SDS011;1548;51.716;8.748;2022-12-18T07:00:59;428.33;;;114.20;;
3074;SDS011;1548;51.716;8.748;2022-12-18T07:03:26;428.37;;;105.50;;
3074;SDS011;1548;51.716;8.748;2022-12-18T07:05:52;432.10;;;100.97;;
3074;SDS011;1548;51.716;8.748;2022-12-18T07:08:18;439.07;;;94.70;;
3074;SDS011;1548;51.716;8.748;2022-12-18T07:10:43;434.00;;;90.43;;
3074;SDS011;1548;51.716;8.748;2022-12-18T07:13:09;427.63;;;91.97;;
3074;SDS011;1548;51.716;8.748;2022-12-18T07:15:35;436.63;;;95.37;;
3074;SDS011;1548;51.716;8.748;2022-12-18T07:18:01;417.57;;;95.63;;
3074;SDS011;1548;51.716;8.748;2022-12-18T07:20:26;438.47;;;95.47;;
3074;SDS011;1548;51.716;8.748;2022-12-18T07:22:52;435.27;;;101.77;;
3074;SDS011;1548;51.716;8.748;2022-12-18T07:25:17;428.67;;;109.17;;
3074;SDS011;1548;51.716;8.748;2022-12-18T07:27:43;437.63;;;93.53;;
3074;SDS011;1548;51.716;8.748;2022-12-18T07:30:09;429.00;;;91.33;;
3074;SDS011;1548;51.716;8.748;2022-12-18T07:32:35;441.00;;;97.37;;
3074;SDS011;1548;51.716;8.748;2022-12-18T07:35:00;434.27;;;104.67;;
3074;SDS011;1548;51.716;8.748;2022-12-18T07:37:26;428.50;;;105.67;;
3074;SDS011;1548;51.716;8.748;2022-12-18T07:39:52;434.13;;;107.40;;
3074;SDS011;1548;51.716;8.748;2022-12-18T07:42:17;437.70;;;104.77;;
3074;SDS011;1548;51.716;8.748;2022-12-18T07:44:55;449.07;;;144.77;;
3074;SDS011;1548;51.716;8.748;2022-12-18T07:47:21;370.80;;;150.47;;
3074;SDS011;1548;51.716;8.748;2022-12-18T07:49:47;379.37;;;151.87;;
3074;SDS011;1548;51.716;8.748;2022-12-18T07:52:12;373.10;;;147.70;;
3074;SDS011;1548;51.716;8.748;2022-12-18T07:54:38;389.77;;;155.67;;
3074;SDS011;1548;51.716;8.748;2022-12-18T07:57:05;382.43;;;146.90;;
3074;SDS011;1548;51.716;8.748;2022-12-18T07:59:31;392.67;;;151.00;;
3074;SDS011;1548;51.716;8.748;2022-12-18T08:01:56;392.67;;;150.30;;
3074;SDS011;1548;51.716;8.748;2022-12-18T08:04:23;398.40;;;151.70;;
3074;SDS011;1548;51.716;8.748;2022-12-18T08:06:49;403.47;;;156.30;;
3074;SDS011;1548;51.716;8.748;2022-12-18T08:09:14;386.67;;;152.33;;
3074;SDS011;1548;51.716;8.748;2022-12-18T08:11:40;394.90;;;151.27;;
3074;SDS011;1548;51.716;8.748;2022-12-18T08:14:06;397.63;;;150.37;;
3074;SDS011;1548;51.716;8.748;2022-12-18T08:16:31;401.53;;;149.57;;
3074;SDS011;1548;51.716;8.748;2022-12-18T08:18:57;394.00;;;152.83;;
3074;SDS011;1548;51.716;8.748;2022-12-18T08:21:24;389.27;;;150.93;;
3074;SDS011;1548;51.716;8.748;2022-12-18T08:23:52;412.03;;;153.23;;
3074;SDS011;1548;51.716;8.748;2022-12-18T08:26:19;408.23;;;150.80;;
3074;SDS011;1548;51.716;8.748;2022-12-18T08:28:46;397.47;;;151.10;;
3074;SDS011;1548;51.716;8.748;2022-12-18T08:31:15;439.23;;;115.27;;
3074;SDS011;1548;51.716;8.748;2022-12-18T08:33:40;439.73;;;117.13;;
3074;SDS011;1548;51.716;8.748;2022-12-18T08:36:07;431.90;;;107.47;;
3074;SDS011;1548;51.716;8.748;2022-12-18T08:38:34;415.20;;;106.77;;
3074;SDS011;1548;51.716;8.748;2022-12-18T08:43:27;412.37;;;122.97;;
3074;SDS011;1548;51.716;8.748;2022-12-18T08:46:11;381.33;;;152.70;;
3074;SDS011;1548;51.716;8.748;2022-12-18T08:48:43;402.20;;;149.07;;
3074;SDS011;1548;51.716;8.748;2022-12-18T08:51:09;399.43;;;147.83;;
3074;SDS011;1548;51.716;8.748;2022-12-18T08:53:35;404.17;;;141.17;;
3074;SDS011;1548;51.716;8.748;2022-12-18T08:56:02;421.43;;;151.47;;
3074;SDS011;1548;51.716;8.748;2022-12-18T08:58:29;438.83;;;85.57;;
3074;SDS011;1548;51.716;8.748;2022-12-18T09:00:59;444.53;;;87.67;;
3074;SDS011;1548;51.716;8.748;2022-12-18T09:03:29;440.77;;;87.27;;
3074;SDS011;1548;51.716;8.748;2022-12-18T09:05:55;447.03;;;87.17;;
3074;SDS011;1548;51.716;8.748;2022-12-18T09:08:20;441.77;;;86.40;;
3074;SDS011;1548;51.716;8.748;2022-12-18T09:10:47;447.93;;;85.37;;
3074;SDS011;1548;51.716;8.748;2022-12-18T09:13:14;438.03;;;86.50;;
3074;SDS011;1548;51.716;8.748;2022-12-18T09:15:41;449.63;;;99.33;;
3074;SDS011;1548;51.716;8.748;2022-12-18T09:18:08;443.80;;;95.63;;
3074;SDS011;1548;51.716;8.748;2022-12-18T09:20:34;440.67;;;94.63;;
3074;SDS011;1548;51.716;8.748;2022-12-18T09:23:01;436.83;;;83.23;;
3074;SDS011;1548;51.716;8.748;2022-12-18T09:25:28;441.23;;;86.83;;
3074;SDS011;1548;51.716;8.748;2022-12-18T09:27:58;446.33;;;87.60;;
3074;SDS011;1548;51.716;8.748;2022-12-18T09:30:43;416.23;;;145.03;;
3074;SDS011;1548;51.716;8.748;2022-12-18T09:33:11;417.93;;;144.47;;
3074;SDS011;1548;51.716;8.748;2022-12-18T09:35:37;415.70;;;148.63;;
3074;SDS011;1548;51.716;8.748;2022-12-18T09:38:04;423.23;;;150.23;;
3074;SDS011;1548;51.716;8.748;2022-12-18T09:40:34;416.20;;;141.10;;
3074;SDS011;1548;51.716;8.748;2022-12-18T09:43:04;431.33;;;151.03;;
3074;SDS011;1548;51.716;8.748;2022-12-18T09:45:34;409.43;;;145.70;;
3074;SDS011;1548;51.716;8.748;2022-12-18T09:48:10;403.53;;;150.73;;
3074;SDS011;1548;51.716;8.748;2022-12-18T09:50:46;407.00;;;149.07;;
3074;SDS011;1548;51.716;8.748;2022-12-18T09:53:18;414.97;;;135.70;;
3074;SDS011;1548;51.716;8.748;2022-12-18T09:55:47;433.03;;;99.33;;
3074;SDS011;1548;51.716;8.748;2022-12-18T09:58:18;444.27;;;95.93;;
3074;SDS011;1548;51.716;8.748;2022-12-18T10:01:00;446.57;;;96.00;;
3074;SDS011;1548;51.716;8.748;2022-12-18T10:03:26;462.43;;;142.73;;
3074;SDS011;1548;51.716;8.748;2022-12-18T10:05:55;415.00;;;119.97;;
3074;SDS011;1548;51.716;8.748;2022-12-18T10:14:09;446.33;;;98.13;;
3074;SDS011;1548;51.716;8.748;2022-12-18T10:19:32;437.63;;;107.10;;
3074;SDS011;1548;51.716;8.748;2022-12-18T10:27:44;446.57;;;100.80;;
3074;SDS011;1548;51.716;8.748;2022-12-18T10:30:16;434.47;;;97.63;;
3074;SDS011;1548;51.716;8.748;2022-12-18T10:32:44;434.20;;;109.40;;
3074;SDS011;1548;51.716;8.748;2022-12-18T10:35:24;432.87;;;101.60;;
3074;SDS011;1548;51.716;8.748;2022-12-18T10:43:20;441.13;;;111.67;;
3074;SDS011;1548;51.716;8.748;2022-12-18T10:48:33;441.30;;;105.67;;
3074;SDS011;1548;51.716;8.748;2022-12-18T10:51:06;437.07;;;101.37;;
3074;SDS011;1548;51.716;8.748;2022-12-18T10:53:33;434.10;;;103.87;;
3074;SDS011;1548;51.716;8.748;2022-12-18T10:56:02;442.67;;;108.97;;
3074;SDS011;1548;51.716;8.748;2022-12-18T10:58:37;424.57;;;107.57;;
3074;SDS011;1548;51.716;8.748;2022-12-18T11:01:13;440.57;;;115.50;;
3074;SDS011;1548;51.716;8.748;2022-12-18T11:03:40;414.97;;;119.13;;
3074;SDS011;1548;51.716;8.748;2022-12-18T11:06:17;437.10;;;106.53;;
3074;SDS011;1548;51.716;8.748;2022-12-18T11:08:59;426.57;;;102.20;;
3074;SDS011;1548;51.716;8.748;2022-12-18T11:11:26;433.27;;;100.33;;
3074;SDS011;1548;51.716;8.748;2022-12-18T11:16:27;433.93;;;105.93;;
3074;SDS011;1548;51.716;8.748;2022-12-18T11:18:59;433.77;;;105.53;;
3074;SDS011;1548;51.716;8.748;2022-12-18T11:21:46;429.60;;;103.80;;
3074;SDS011;1548;51.716;8.748;2022-12-18T11:24:31;424.93;;;96.30;;
3074;SDS011;1548;51.716;8.748;2022-12-18T11:27:04;426.20;;;100.83;;
3074;SDS011;1548;51.716;8.748;2022-12-18T11:29:38;426.60;;;99.67;;
3074;SDS011;1548;51.716;8.748;2022-12-18T11:35:19;416.03;;;99.63;;
3074;SDS011;1548;51.716;8.748;2022-12-18T11:37:59;419.73;;;105.43;;
3074;SDS011;1548;51.716;8.748;2022-12-18T11:40:37;418.53;;;104.37;;
3074;SDS011;1548;51.716;8.748;2022-12-18T11:45:46;413.33;;;101.50;;
3074;SDS011;1548;51.716;8.748;2022-12-18T11:50:58;412.43;;;97.33;;
3074;SDS011;1548;51.716;8.748;2022-12-18T11:53:26;412.20;;;93.23;;
3074;SDS011;1548;51.716;8.748;2022-12-18T11:56:00;416.00;;;93.33;;
3074;SDS011;1548;51.716;8.748;2022-12-18T12:01:15;420.57;;;76.90;;
3074;SDS011;1548;51.716;8.748;2022-12-18T12:14:20;419.60;;;81.83;;
3074;SDS011;1548;51.716;8.748;2022-12-18T12:17:04;427.93;;;85.50;;
3074;SDS011;1548;51.716;8.748;2022-12-18T12:25:28;416.83;;;86.17;;
3074;SDS011;1548;51.716;8.748;2022-12-18T12:28:09;406.53;;;81.00;;
3074;SDS011;1548;51.716;8.748;2022-12-18T12:38:51;416.93;;;111.77;;
3074;SDS011;1548;51.716;8.748;2022-12-18T12:41:23;401.07;;;100.00;;
3074;SDS011;1548;51.716;8.748;2022-12-18T12:44:13;453.90;;;89.90;;
3074;SDS011;1548;51.716;8.748;2022-12-18T12:46:44;406.40;;;87.03;;
3074;SDS011;1548;51.716;8.748;2022-12-18T12:49:14;451.20;;;105.10;;
3074;SDS011;1548;51.716;8.748;2022-12-18T12:51:43;456.87;;;109.30;;
3074;SDS011;1548;51.716;8.748;2022-12-18T12:54:21;458.57;;;83.93;;
3074;SDS011;1548;51.716;8.748;2022-12-18T13:08:03;429.40;;;65.20;;
3074;SDS011;1548;51.716;8.748;2022-12-18T13:15:37;425.13;;;62.70;;
3074;SDS011;1548;51.716;8.748;2022-12-18T13:20:39;436.37;;;63.00;;
3074;SDS011;1548;51.716;8.748;2022-12-18T13:24:14;463.40;;;69.70;;
3074;SDS011;1548;51.716;8.748;2022-12-18T13:36:52;457.73;;;68.23;;
3074;SDS011;1548;51.716;8.748;2022-12-18T13:41:46;466.50;;;69.30;;
3074;SDS011;1548;51.716;8.748;2022-12-18T13:46:50;438.50;;;64.07;;
3074;SDS011;1548;51.716;8.748;2022-12-18T13:49:24;423.90;;;63.73;;
3074;SDS011;1548;51.716;8.748;2022-12-18T13:51:51;462.53;;;67.53;;
3074;SDS011;1548;51.716;8.748;2022-12-18T13:56:53;461.63;;;69.67;;
3074;SDS011;1548;51.716;8.748;2022-12-18T13:59:23;458.03;;;72.80;;
3074;SDS011;1548;51.716;8.748;2022-12-18T14:01:57;456.03;;;67.57;;
3074;SDS011;1548;51.716;8.748;2022-12-18T14:04:28;423.50;;;63.50;;
3074;SDS011;1548;51.716;8.748;2022-12-18T14:06:58;418.13;;;69.00;;
3074;SDS011;1548;51.716;8.748;2022-12-18T14:09:30;425.23;;;69.97;;
3074;SDS011;1548;51.716;8.748;2022-12-18T14:12:00;408.30;;;63.73;;
3074;SDS011;1548;51.716;8.748;2022-12-18T14:14:46;430.13;;;71.17;;
3074;SDS011;1548;51.716;8.748;2022-12-18T14:17:16;457.00;;;67.10;;
3074;SDS011;1548;51.716;8.748;2022-12-18T14:19:43;417.37;;;62.27;;
3074;SDS011;1548;51.716;8.748;2022-12-18T14:22:14;413.97;;;61.03;;
3074;SDS011;1548;51.716;8.748;2022-12-18T14:24:42;459.27;;;66.57;;
3074;SDS011;1548;51.716;8.748;2022-12-18T14:27:26;457.60;;;64.70;;
3074;SDS011;1548;51.716;8.748;2022-12-18T14:29:52;454.77;;;65.93;;
3074;SDS011;1548;51.716;8.748;2022-12-18T14:32:18;418.63;;;61.27;;
3074;SDS011;1548;51.716;8.748;2022-12-18T14:34:45;418.10;;;58.30;;
3074;SDS011;1548;51.716;8.748;2022-12-18T14:37:25;417.20;;;65.50;;
3074;SDS011;1548;51.716;8.748;2022-12-18T14:39:55;419.40;;;64.67;;
3074;SDS011;1548;51.716;8.748;2022-12-18T14:42:30;420.73;;;65.57;;
3074;SDS011;1548;51.716;8.748;2022-12-18T14:47:59;457.87;;;66.50;;
3074;SDS011;1548;51.716;8.748;2022-12-18T14:50:26;457.20;;;68.20;;
3074;SDS011;1548;51.716;8.748;2022-12-18T14:52:51;419.80;;;62.23;;
3074;SDS011;1548;51.716;8.748;2022-12-18T14:55:17;424.90;;;64.77;;
3074;SDS011;1548;51.716;8.748;2022-12-18T14:57:46;425.67;;;64.47;;
3074;SDS011;1548;51.716;8.748;2022-12-18T15:00:17;416.20;;;61.40;;
3074;SDS011;1548;51.716;8.748;2022-12-18T15:02:46;416.93;;;63.67;;
3074;SDS011;1548;51.716;8.748;2022-12-18T15:05:19;416.30;;;62.27;;
3074;SDS011;1548;51.716;8.748;2022-12-18T15:07:52;411.00;;;62.50;;
3074;SDS011;1548;51.716;8.748;2022-12-18T15:10:19;440.03;;;67.70;;
3074;SDS011;1548;51.716;8.748;2022-12-18T15:20:39;459.17;;;77.20;;
3074;SDS011;1548;51.716;8.748;2022-12-18T15:25:58;416.87;;;73.53;;
3074;SDS011;1548;51.716;8.748;2022-12-18T15:28:38;414.97;;;73.73;;
3074;SDS011;1548;51.716;8.748;2022-12-18T15:31:05;417.50;;;76.27;;
3074;SDS011;1548;51.716;8.748;2022-12-18T15:36:18;416.33;;;69.87;;
3074;SDS011;1548;51.716;8.748;2022-12-18T15:38:47;364.53;;;61.07;;
3074;SDS011;1548;51.716;8.748;2022-12-18T15:41:14;418.57;;;72.93;;
3074;SDS011;1548;51.716;8.748;2022-12-18T15:43:42;415.40;;;67.77;;
3074;SDS011;1548;51.716;8.748;2022-12-18T15:48:41;415.60;;;73.13;;
3074;SDS011;1548;51.716;8.748;2022-12-18T15:51:13;418.50;;;70.03;;
3074;SDS011;1548;51.716;8.748;2022-12-18T15:53:43;422.37;;;70.60;;
3074;SDS011;1548;51.716;8.748;2022-12-18T15:56:10;426.73;;;69.97;;
3074;SDS011;1548;51.716;8.748;2022-12-18T15:58:55;421.57;;;68.27;;
3074;SDS011;1548;51.716;8.748;2022-12-18T16:01:25;417.93;;;63.67;;
3074;SDS011;1548;51.716;8.748;2022-12-18T16:03:55;426.80;;;66.97;;
3074;SDS011;1548;51.716;8.748;2022-12-18T16:06:24;433.13;;;70.63;;
3074;SDS011;1548;51.716;8.748;2022-12-18T16:08:49;425.57;;;67.60;;
3074;SDS011;1548;51.716;8.748;2022-12-18T16:11:23;417.13;;;64.07;;
3074;SDS011;1548;51.716;8.748;2022-12-18T16:14:06;423.73;;;67.53;;
3074;SDS011;1548;51.716;8.748;2022-12-18T16:16:44;423.33;;;65.33;;
3074;SDS011;1548;51.716;8.748;2022-12-18T16:19:11;418.83;;;66.60;;
3074;SDS011;1548;51.716;8.748;2022-12-18T16:21:37;436.53;;;68.70;;
3074;SDS011;1548;51.716;8.748;2022-12-18T16:24:03;418.50;;;63.13;;
3074;SDS011;1548;51.716;8.748;2022-12-18T16:26:29;421.07;;;65.87;;
3074;SDS011;1548;51.716;8.748;2022-12-18T16:28:54;424.47;;;66.17;;
3074;SDS011;1548;51.716;8.748;2022-12-18T16:31:20;421.23;;;66.40;;
3074;SDS011;1548;51.716;8.748;2022-12-18T16:33:46;423.57;;;70.27;;
3074;SDS011;1548;51.716;8.748;2022-12-18T16:36:12;426.70;;;72.27;;
3074;SDS011;1548;51.716;8.748;2022-12-18T16:38:37;433.17;;;73.47;;
3074;SDS011;1548;51.716;8.748;2022-12-18T16:41:06;428.43;;;70.13;;
3074;SDS011;1548;51.716;8.748;2022-12-18T16:44:01;428.93;;;70.37;;
3074;SDS011;1548;51.716;8.748;2022-12-18T16:46:27;427.30;;;67.97;;
3074;SDS011;1548;51.716;8.748;2022-12-18T16:48:54;433.13;;;72.93;;
3074;SDS011;1548;51.716;8.748;2022-12-18T16:51:21;419.17;;;66.23;;
3074;SDS011;1548;51.716;8.748;2022-12-18T16:53:47;420.03;;;68.37;;
3074;SDS011;1548;51.716;8.748;2022-12-18T16:56:12;435.20;;;73.43;;
3074;SDS011;1548;51.716;8.748;2022-12-18T16:58:38;422.07;;;64.67;;
3074;SDS011;1548;51.716;8.748;2022-12-18T17:01:07;423.30;;;63.90;;